createdAt,value
2022-12-03T00:01:03.700Z,14.35
2022-12-03T00:03:30.706Z,17.45
2022-12-03T00:05:57.500Z,13.23
2022-12-03T00:08:24.226Z,15.77
2022-12-03T00:10:50.895Z,13.82
2022-12-03T00:13:17.585Z,15.95
2022-12-03T00:15:44.451Z,13.80
2022-12-03T00:18:11.242Z,15.07
2022-12-03T00:20:37.926Z,16.50
2022-12-03T00:23:04.606Z,13.10
2022-12-03T00:25:31.288Z,16.00
2022-12-03T00:27:57.955Z,13.27
2022-12-03T00:30:24.691Z,17.25
2022-12-03T00:32:51.511Z,14.65
2022-12-03T00:35:18.269Z,16.35
2022-12-03T00:37:45.046Z,13.75
2022-12-03T00:40:12.364Z,12.20
2022-12-03T00:42:39.495Z,14.00
2022-12-03T00:45:06.688Z,12.50
2022-12-03T00:47:33.413Z,13.45
2022-12-03T00:50:00.245Z,12.23
2022-12-03T00:52:27.169Z,8.77
2022-12-03T00:54:54.226Z,13.60
2022-12-03T00:57:21.099Z,15.05
2022-12-03T00:59:47.921Z,14.70
2022-12-03T01:02:14.814Z,15.93
2022-12-03T01:04:41.571Z,14.68
2022-12-03T01:07:08.437Z,13.82
2022-12-03T01:09:35.228Z,12.85
2022-12-03T01:12:01.917Z,11.73
2022-12-03T01:14:30.806Z,14.65
2022-12-03T01:16:57.659Z,13.30
2022-12-03T01:19:24.949Z,13.70
2022-12-03T01:21:51.901Z,12.77
2022-12-03T01:24:19.416Z,11.13
2022-12-03T01:26:46.217Z,11.63
2022-12-03T01:29:13.428Z,13.65
2022-12-03T01:31:59.143Z,17.15
2022-12-03T01:34:25.932Z,13.35
2022-12-03T01:36:52.771Z,11.45
2022-12-03T01:39:19.848Z,12.43
2022-12-03T01:41:48.696Z,12.88
2022-12-03T01:44:19.803Z,14.35
2022-12-03T01:46:47.619Z,15.48
2022-12-03T01:49:23.507Z,12.02
2022-12-03T01:51:52.451Z,11.20
2022-12-03T01:54:22.724Z,13.77
2022-12-03T01:56:49.730Z,9.10
2022-12-03T01:59:19.533Z,12.38
2022-12-03T02:01:46.375Z,15.75
2022-12-03T02:04:19.586Z,16.73
2022-12-03T02:06:46.339Z,12.05
2022-12-03T02:09:13.962Z,15.38
2022-12-03T02:11:45.132Z,12.10
2022-12-03T02:14:15.935Z,13.15
2022-12-03T02:16:43.870Z,13.65
2022-12-03T02:19:21.570Z,12.43
2022-12-03T02:22:02.443Z,16.10
2022-12-03T02:24:37.251Z,15.15
2022-12-03T02:27:04.060Z,15.77
2022-12-03T02:29:31.157Z,15.85
2022-12-03T02:31:59.243Z,15.10
2022-12-03T02:34:40.502Z,13.82
2022-12-03T02:37:12.359Z,12.65
2022-12-03T02:39:49.706Z,15.20
2022-12-03T02:42:35.555Z,14.68
2022-12-03T02:45:36.031Z,13.40
2022-12-03T02:48:11.586Z,13.52
2022-12-03T02:50:51.507Z,11.60
2022-12-03T02:53:22.020Z,12.77
2022-12-03T02:58:15.999Z,15.40
2022-12-03T03:00:43.877Z,14.35
2022-12-03T03:03:11.567Z,15.75
2022-12-03T03:05:40.123Z,16.42
2022-12-03T03:08:08.825Z,13.82
2022-12-03T03:10:37.969Z,9.73
2022-12-03T03:13:10.057Z,16.80
2022-12-03T03:15:40.540Z,13.63
2022-12-03T03:20:35.509Z,13.57
2022-12-03T03:23:07.177Z,14.73
2022-12-03T03:25:34.034Z,13.90
2022-12-03T03:28:00.878Z,10.40
2022-12-03T03:30:27.710Z,13.88
2022-12-03T03:32:54.650Z,14.45
2022-12-03T03:35:22.815Z,10.52
2022-12-03T03:37:49.598Z,13.68
2022-12-03T03:40:16.478Z,16.42
2022-12-03T03:42:43.398Z,16.75
2022-12-03T03:45:10.646Z,13.95
2022-12-03T03:47:37.554Z,14.95
2022-12-03T03:50:05.283Z,13.75
2022-12-03T03:52:32.081Z,16.45
2022-12-03T03:54:58.954Z,14.57
2022-12-03T03:57:26.190Z,16.52
2022-12-03T03:59:52.947Z,15.93
2022-12-03T04:02:21.364Z,14.85
2022-12-03T04:04:48.742Z,13.60
2022-12-03T04:07:16.439Z,15.30
2022-12-03T04:09:43.676Z,13.13
2022-12-03T04:12:31.450Z,15.75
2022-12-03T04:14:58.783Z,14.90
2022-12-03T04:17:26.089Z,15.38
2022-12-03T04:19:52.870Z,11.05
2022-12-03T04:22:39.925Z,14.02
2022-12-03T04:25:26.623Z,15.35
2022-12-03T04:28:12.681Z,13.57
2022-12-03T04:30:41.489Z,15.07
2022-12-03T04:33:27.370Z,15.55
2022-12-03T04:35:54.200Z,11.88
2022-12-03T04:38:21.178Z,17.95
2022-12-03T04:41:06.181Z,18.48
2022-12-03T04:43:56.469Z,15.65
2022-12-03T04:46:23.182Z,17.00
2022-12-03T04:48:49.969Z,16.52
2022-12-03T04:51:16.727Z,15.23
2022-12-03T04:53:46.313Z,17.02
2022-12-03T04:56:13.265Z,16.92
2022-12-03T04:58:40.142Z,12.45
2022-12-03T05:01:06.909Z,15.68
2022-12-03T05:03:33.677Z,15.40
2022-12-03T05:06:00.411Z,14.10
2022-12-03T05:08:27.086Z,16.42
2022-12-03T05:10:54.676Z,15.85
2022-12-03T05:13:21.430Z,16.23
2022-12-03T05:15:48.063Z,16.63
2022-12-03T05:18:14.772Z,16.50
2022-12-03T05:20:41.421Z,15.57
2022-12-03T05:23:09.560Z,21.27
2022-12-03T05:25:36.677Z,16.92
2022-12-03T05:28:03.831Z,18.35
2022-12-03T05:30:30.679Z,16.92
2022-12-03T05:32:57.556Z,15.63
2022-12-03T05:35:24.486Z,13.13
2022-12-03T05:37:51.265Z,17.10
2022-12-03T05:40:18.369Z,16.75
2022-12-03T05:42:54.356Z,18.10
2022-12-03T05:45:25.861Z,17.85
2022-12-03T05:47:54.166Z,19.83
2022-12-03T05:50:22.695Z,19.13
2022-12-03T05:52:49.667Z,19.60
2022-12-03T05:55:16.664Z,12.10
2022-12-03T05:57:43.487Z,14.48
2022-12-03T06:00:18.357Z,19.70
2022-12-03T06:02:45.269Z,20.23
2022-12-03T06:05:13.557Z,17.90
2022-12-03T06:07:43.547Z,20.25
2022-12-03T06:10:12.851Z,20.65
2022-12-03T06:12:39.907Z,20.42
2022-12-03T06:15:07.353Z,21.58
2022-12-03T06:17:34.216Z,20.08
2022-12-03T06:20:01.071Z,18.60
2022-12-03T06:22:27.783Z,21.67
2022-12-03T06:24:54.684Z,17.48
2022-12-03T06:27:21.556Z,17.35
2022-12-03T06:29:48.221Z,23.55
2022-12-03T06:32:14.911Z,17.73
2022-12-03T06:34:41.650Z,20.85
2022-12-03T06:37:08.408Z,18.80
2022-12-03T06:39:35.140Z,22.33
2022-12-03T06:42:01.918Z,10.32
2022-12-03T06:44:29.860Z,17.25
2022-12-03T06:46:56.644Z,15.00
2022-12-03T06:49:23.432Z,19.00
2022-12-03T06:51:50.140Z,16.38
2022-12-03T06:54:16.880Z,16.00
2022-12-03T06:56:45.610Z,17.88
2022-12-03T06:59:12.745Z,7.97
2022-12-03T07:01:40.742Z,13.50
2022-12-03T07:04:07.420Z,18.77
2022-12-03T07:06:34.140Z,19.25
2022-12-03T07:09:00.847Z,15.63
2022-12-03T07:11:39.771Z,17.85
2022-12-03T07:14:08.364Z,19.90
2022-12-03T07:16:36.065Z,13.43
2022-12-03T07:19:04.585Z,16.95
2022-12-03T07:21:31.546Z,14.27
2022-12-03T07:23:58.403Z,18.65
2022-12-03T07:26:25.387Z,16.27
2022-12-03T07:28:52.087Z,12.40
2022-12-03T07:31:18.846Z,16.60
2022-12-03T07:33:45.644Z,15.18
2022-12-03T07:36:12.380Z,13.75
2022-12-03T07:38:39.309Z,14.55
2022-12-03T07:41:06.188Z,20.52
2022-12-03T07:43:32.982Z,16.55
2022-12-03T07:46:00.790Z,14.15
2022-12-03T07:48:27.894Z,12.60
2022-12-03T07:50:54.797Z,12.73
2022-12-03T07:53:21.774Z,16.33
2022-12-03T07:55:48.562Z,12.98
2022-12-03T07:58:16.333Z,16.05
2022-12-03T08:00:43.114Z,18.45
2022-12-03T08:03:09.958Z,15.73
2022-12-03T08:05:36.808Z,16.63
2022-12-03T08:08:03.695Z,16.13
2022-12-03T08:10:30.437Z,11.75
2022-12-03T08:12:59.121Z,16.08
2022-12-03T08:15:32.223Z,10.23
2022-12-03T08:18:07.992Z,16.10
2022-12-03T08:20:38.998Z,16.75
2022-12-03T08:23:17.780Z,17.52
2022-12-03T08:25:45.714Z,16.55
2022-12-03T08:28:14.111Z,16.20
2022-12-03T08:30:43.583Z,17.75
2022-12-03T08:33:25.878Z,19.75
2022-12-03T08:35:52.773Z,15.65
2022-12-03T08:38:22.642Z,20.15
2022-12-03T08:40:51.678Z,22.55
2022-12-03T08:43:26.501Z,13.40
2022-12-03T08:45:57.759Z,20.30
2022-12-03T08:48:40.684Z,21.35
2022-12-03T08:51:21.699Z,18.50
2022-12-03T08:53:53.297Z,19.02
2022-12-03T08:56:26.557Z,20.85
2022-12-03T08:59:29.287Z,17.52
2022-12-03T09:01:58.132Z,25.02
2022-12-03T09:04:45.240Z,15.13
2022-12-03T09:07:12.095Z,24.83
2022-12-03T09:09:39.390Z,15.63
2022-12-03T09:12:06.375Z,26.70
2022-12-03T09:14:33.169Z,13.95
2022-12-03T09:16:59.930Z,17.00
2022-12-03T09:19:31.203Z,21.65
2022-12-03T09:21:58.157Z,20.25
2022-12-03T09:24:24.916Z,22.00
2022-12-03T09:26:51.705Z,26.55
2022-12-03T09:29:18.473Z,18.10
2022-12-03T09:31:45.445Z,26.30
2022-12-03T09:34:12.422Z,20.85
2022-12-03T09:36:39.520Z,20.55
2022-12-03T09:39:06.337Z,20.65
2022-12-03T09:41:33.060Z,21.25
2022-12-03T09:44:04.339Z,24.88
2022-12-03T09:46:32.280Z,23.90
2022-12-03T09:49:00.290Z,23.92
2022-12-03T09:51:32.865Z,22.90
2022-12-03T09:54:01.139Z,19.58
2022-12-03T09:56:27.985Z,14.57
2022-12-03T09:58:54.869Z,22.05
2022-12-03T10:01:21.961Z,23.98
2022-12-03T10:03:50.903Z,21.33
2022-12-03T10:06:22.861Z,19.63
2022-12-03T10:08:52.803Z,18.02
2022-12-03T10:11:22.655Z,17.80
2022-12-03T10:13:50.169Z,18.33
2022-12-03T10:16:20.718Z,15.93
2022-12-03T10:18:51.181Z,10.57
2022-12-03T10:21:26.477Z,15.52
2022-12-03T10:24:21.739Z,15.00
2022-12-03T10:26:50.430Z,17.33
2022-12-03T10:29:31.369Z,15.60
2022-12-03T10:32:02.744Z,18.55
2022-12-03T10:34:31.124Z,14.75
2022-12-03T10:37:17.235Z,20.48
2022-12-03T10:40:01.550Z,15.43
2022-12-03T10:42:31.253Z,15.35
2022-12-03T10:45:20.153Z,20.55
2022-12-03T10:48:11.544Z,22.58
2022-12-03T10:50:53.245Z,21.73
2022-12-03T10:53:22.430Z,22.52
2022-12-03T10:55:51.489Z,15.43
2022-12-03T10:58:45.442Z,16.92
2022-12-03T11:01:21.017Z,15.15
2022-12-03T11:03:49.641Z,12.10
2022-12-03T11:06:22.926Z,16.30
2022-12-03T11:08:58.379Z,16.48
2022-12-03T11:11:29.427Z,20.45
2022-12-03T11:14:01.330Z,20.67
2022-12-03T11:16:40.418Z,31.90
2022-12-03T11:19:13.300Z,22.08
2022-12-03T11:22:09.979Z,16.13
2022-12-03T11:24:39.239Z,13.70
2022-12-03T11:27:16.216Z,20.00
2022-12-03T11:29:58.265Z,20.55
2022-12-03T11:32:42.847Z,18.75
2022-12-03T11:35:14.091Z,19.27
2022-12-03T11:37:41.120Z,15.05
2022-12-03T11:40:16.961Z,15.88
2022-12-03T11:42:45.552Z,15.30
2022-12-03T11:45:33.372Z,16.95
2022-12-03T11:48:00.010Z,28.90
2022-12-03T11:50:43.646Z,15.05
2022-12-03T11:53:13.411Z,17.42
2022-12-03T11:55:52.122Z,15.85
2022-12-03T11:58:27.290Z,16.38
2022-12-03T12:01:02.663Z,15.35
2022-12-03T12:03:33.322Z,12.63
2022-12-03T12:06:07.137Z,15.50
2022-12-03T12:08:35.823Z,14.50
2022-12-03T12:11:03.701Z,15.07
2022-12-03T12:13:36.387Z,14.35
2022-12-03T12:16:07.949Z,14.30
2022-12-03T12:18:37.048Z,14.52
2022-12-03T12:21:42.118Z,13.20
2022-12-03T12:24:40.631Z,13.05
2022-12-03T12:27:09.235Z,11.82
2022-12-03T12:29:37.517Z,17.02
2022-12-03T12:32:50.084Z,15.85
2022-12-03T12:35:25.738Z,12.38
2022-12-03T12:38:08.624Z,16.50
2022-12-03T12:40:38.518Z,17.15
2022-12-03T12:43:14.431Z,20.55
2022-12-03T12:45:45.262Z,21.08
2022-12-03T12:48:23.627Z,18.70
2022-12-03T12:51:18.642Z,17.25
2022-12-03T12:53:45.588Z,17.67
2022-12-03T12:56:32.647Z,19.02
2022-12-03T12:59:10.225Z,18.35
2022-12-03T13:01:37.440Z,18.30
2022-12-03T13:04:14.885Z,16.98
2022-12-03T13:06:42.478Z,17.65
2022-12-03T13:09:25.807Z,19.00
2022-12-03T13:12:07.361Z,20.48
2022-12-03T13:14:37.022Z,21.95
2022-12-03T13:17:22.483Z,22.73
2022-12-03T13:19:55.869Z,18.23
2022-12-03T13:22:30.512Z,23.65
2022-12-03T13:24:58.674Z,21.67
2022-12-03T13:27:30.370Z,24.17
2022-12-03T13:30:07.305Z,21.80
2022-12-03T13:32:37.509Z,20.10
2022-12-03T13:35:31.700Z,19.60
2022-12-03T13:37:59.169Z,18.13
2022-12-03T13:40:32.875Z,20.33
2022-12-03T13:43:19.221Z,23.25
2022-12-03T13:45:48.320Z,25.30
2022-12-03T13:48:21.679Z,24.50
2022-12-03T13:50:48.926Z,21.33
2022-12-03T13:53:26.738Z,31.40
2022-12-03T13:56:27.509Z,27.98
2022-12-03T13:58:55.168Z,25.73
2022-12-03T14:01:22.051Z,25.45
2022-12-03T14:03:49.439Z,25.45
2022-12-03T14:06:17.506Z,24.40
2022-12-03T14:08:44.450Z,20.23
2022-12-03T14:11:34.653Z,19.58
2022-12-03T14:14:01.367Z,24.05
2022-12-03T14:16:30.756Z,21.20
2022-12-03T14:18:57.554Z,22.90
2022-12-03T14:21:24.251Z,20.13
2022-12-03T14:23:50.910Z,22.85
2022-12-03T14:26:17.731Z,18.52
2022-12-03T14:28:44.587Z,17.88
2022-12-03T14:31:11.588Z,17.75
2022-12-03T14:33:38.421Z,20.85
2022-12-03T14:36:05.405Z,19.27
2022-12-03T14:38:32.213Z,14.07
2022-12-03T14:40:58.901Z,17.63
2022-12-03T14:43:25.682Z,17.42
2022-12-03T14:45:52.390Z,18.10
2022-12-03T14:48:19.137Z,12.38
2022-12-03T14:50:45.891Z,14.32
2022-12-03T14:53:12.652Z,11.80
2022-12-03T14:55:40.837Z,17.20
2022-12-03T14:58:07.647Z,18.42
2022-12-03T15:00:34.338Z,15.57
2022-12-03T15:03:01.169Z,17.90
2022-12-03T15:05:29.059Z,18.85
2022-12-03T15:07:56.418Z,21.85
2022-12-03T15:10:23.188Z,13.50
2022-12-03T15:12:49.880Z,20.90
2022-12-03T15:15:16.722Z,18.17
2022-12-03T15:17:45.672Z,19.13
2022-12-03T15:20:12.935Z,17.58
2022-12-03T15:22:39.624Z,17.33
2022-12-03T15:25:08.746Z,19.13
2022-12-03T15:27:35.757Z,17.98
2022-12-03T15:30:02.429Z,17.80
2022-12-03T15:32:29.117Z,17.23
2022-12-03T15:34:55.783Z,22.20
2022-12-03T15:37:22.451Z,22.27
2022-12-03T15:39:49.304Z,24.02
2022-12-03T15:42:16.237Z,21.05
2022-12-03T15:44:42.900Z,17.83
2022-12-03T15:47:09.592Z,17.58
2022-12-03T15:49:36.356Z,21.60
2022-12-03T15:52:03.212Z,21.77
2022-12-03T15:54:29.928Z,20.15
2022-12-03T15:56:57.581Z,17.08
2022-12-03T15:59:24.818Z,20.77
2022-12-03T16:01:51.546Z,22.20
2022-12-03T16:04:18.398Z,27.17
2022-12-03T16:06:45.096Z,21.25
2022-12-03T16:09:11.816Z,25.98
2022-12-03T16:11:39.533Z,17.67
2022-12-03T16:14:06.212Z,22.02
2022-12-03T16:16:32.939Z,24.00
2022-12-03T16:18:59.890Z,61.28
2022-12-03T16:21:27.489Z,34.30
2022-12-03T16:23:55.370Z,22.80
2022-12-03T16:26:22.463Z,23.75
2022-12-03T16:28:49.297Z,26.27
2022-12-03T16:31:16.055Z,25.80
2022-12-03T16:33:42.784Z,33.63
2022-12-03T16:36:09.715Z,23.50
2022-12-03T16:38:36.465Z,23.42
2022-12-03T16:41:03.230Z,30.98
2022-12-03T16:43:30.457Z,17.50
2022-12-03T16:46:19.936Z,23.40
2022-12-03T16:48:48.268Z,21.67
2022-12-03T16:51:15.574Z,20.75
2022-12-03T16:53:42.507Z,13.82
2022-12-03T16:56:09.227Z,21.60
2022-12-03T16:58:38.416Z,23.65
2022-12-03T17:01:05.424Z,22.80
2022-12-03T17:03:34.043Z,31.98
2022-12-03T17:06:01.687Z,19.58
2022-12-03T17:08:28.551Z,23.35
2022-12-03T17:10:55.362Z,21.75
2022-12-03T17:13:23.235Z,21.40
2022-12-03T17:15:50.804Z,22.58
2022-12-03T17:18:17.689Z,22.38
2022-12-03T17:20:44.405Z,24.88
2022-12-03T17:23:11.892Z,18.58
2022-12-03T17:25:38.686Z,25.55
2022-12-03T17:28:05.629Z,24.30
2022-12-03T17:30:32.476Z,23.95
2022-12-03T17:32:59.213Z,20.25
2022-12-03T17:35:26.762Z,25.90
2022-12-03T17:37:53.528Z,25.17
2022-12-03T17:40:20.419Z,23.67
2022-12-03T17:42:47.105Z,15.98
2022-12-03T17:45:14.099Z,25.77
2022-12-03T17:47:40.990Z,21.55
2022-12-03T17:50:08.826Z,21.42
2022-12-03T17:52:35.518Z,23.33
2022-12-03T17:55:12.853Z,26.75
2022-12-03T17:57:41.183Z,26.33
2022-12-03T18:00:08.859Z,24.98
2022-12-03T18:02:35.534Z,23.23
2022-12-03T18:05:02.265Z,25.00
2022-12-03T18:07:44.356Z,22.95
2022-12-03T18:10:11.300Z,23.02
2022-12-03T18:12:37.991Z,24.40
2022-12-03T18:15:05.604Z,24.08
2022-12-03T18:17:32.304Z,26.20
2022-12-03T18:20:00.227Z,23.30
2022-12-03T18:22:28.165Z,20.73
2022-12-03T18:24:55.506Z,21.38
2022-12-03T18:27:22.653Z,18.98
2022-12-03T18:29:49.644Z,14.88
2022-12-03T18:32:28.236Z,21.02
2022-12-03T18:34:57.028Z,26.05
2022-12-03T18:37:27.222Z,28.27
2022-12-03T18:39:54.841Z,26.90
2022-12-03T18:42:22.882Z,22.67
2022-12-03T18:44:53.512Z,23.10
2022-12-03T18:47:32.957Z,15.02
2022-12-03T18:49:59.756Z,26.25
2022-12-03T18:52:26.538Z,19.75
2022-12-03T18:54:55.344Z,22.73
2022-12-03T18:57:22.207Z,25.27
2022-12-03T18:59:49.180Z,21.17
2022-12-03T19:02:53.839Z,26.50
2022-12-03T19:05:06.707Z,19.10
2022-12-03T19:07:33.567Z,20.90
2022-12-03T19:10:00.312Z,24.58
2022-12-03T19:12:27.090Z,23.20
2022-12-03T19:14:53.792Z,23.67
2022-12-03T19:17:21.774Z,20.42
2022-12-03T19:19:49.519Z,25.67
2022-12-03T19:22:16.197Z,18.73
2022-12-03T19:24:43.723Z,21.88
2022-12-03T19:27:10.407Z,25.75
2022-12-03T19:29:37.131Z,24.38
2022-12-03T19:32:04.056Z,22.83
2022-12-03T19:34:30.915Z,26.40
2022-12-03T19:36:57.706Z,31.63
2022-12-03T19:39:24.818Z,26.92
2022-12-03T19:41:51.550Z,27.60
2022-12-03T19:44:19.052Z,23.95
2022-12-03T19:46:45.752Z,24.58
2022-12-03T19:49:12.523Z,24.25
2022-12-03T19:51:40.414Z,26.58
2022-12-03T19:54:10.457Z,26.65
2022-12-03T19:56:37.869Z,23.80
2022-12-03T19:59:05.219Z,20.73
2022-12-03T20:01:35.599Z,19.08
2022-12-03T20:04:03.842Z,35.15
2022-12-03T20:06:33.686Z,20.75
2022-12-03T20:09:03.701Z,18.42
2022-12-03T20:11:32.585Z,21.80
2022-12-03T20:14:01.929Z,19.88
2022-12-03T20:16:30.076Z,25.48
2022-12-03T20:18:59.727Z,28.60
2022-12-03T20:21:28.453Z,42.25
2022-12-03T20:23:56.336Z,26.35
2022-12-03T20:26:23.624Z,30.20
2022-12-03T20:28:52.653Z,22.15
2022-12-03T20:31:22.404Z,16.10
2022-12-03T20:33:51.824Z,21.58
2022-12-03T20:36:20.915Z,21.73
2022-12-03T20:38:47.732Z,14.35
2022-12-03T20:41:18.381Z,24.80
2022-12-03T20:43:45.554Z,22.35
2022-12-03T20:46:32.447Z,24.85
2022-12-03T20:48:59.835Z,18.08
2022-12-03T20:51:29.664Z,21.92
2022-12-03T20:53:57.425Z,22.02
2022-12-03T20:56:31.165Z,20.38
2022-12-03T20:59:06.683Z,23.58
2022-12-03T21:01:34.419Z,14.95
2022-12-03T21:04:02.446Z,21.50
2022-12-03T21:06:30.086Z,18.80
2022-12-03T21:08:58.992Z,21.33
2022-12-03T21:11:29.439Z,24.17
2022-12-03T21:17:06.572Z,18.98
2022-12-03T21:19:20.953Z,22.75
2022-12-03T21:21:48.323Z,26.38
2022-12-03T21:24:15.081Z,27.17
2022-12-03T21:26:42.004Z,26.70
2022-12-03T21:29:08.839Z,26.80
2022-12-03T21:31:37.306Z,23.83
2022-12-03T21:34:05.053Z,28.00
2022-12-03T21:36:32.320Z,22.35
2022-12-03T21:38:59.010Z,25.85
2022-12-03T21:41:26.185Z,21.95
2022-12-03T21:43:52.957Z,25.45
2022-12-03T21:47:10.609Z,18.02
2022-12-03T21:49:06.696Z,19.35
2022-12-03T21:51:34.659Z,20.02
2022-12-03T21:54:01.454Z,21.95
2022-12-03T21:56:30.788Z,21.25
2022-12-03T21:58:57.849Z,18.20
2022-12-03T22:01:27.760Z,21.50
2022-12-03T22:03:54.629Z,23.00
2022-12-03T22:06:21.955Z,23.48
2022-12-03T22:08:49.315Z,15.68
2022-12-03T22:11:19.353Z,15.32
2022-12-03T22:13:47.175Z,25.58
2022-12-03T22:16:17.424Z,21.88
2022-12-03T22:18:44.630Z,21.45
2022-12-03T22:21:13.859Z,22.77
2022-12-03T22:23:41.200Z,22.88
2022-12-03T22:26:10.631Z,23.15
2022-12-03T22:28:37.517Z,22.75
2022-12-03T22:31:08.702Z,20.67
2022-12-03T22:33:36.736Z,18.08
2022-12-03T22:36:08.255Z,17.38
2022-12-03T22:38:37.377Z,23.42
2022-12-03T22:41:12.392Z,22.52
2022-12-03T22:43:39.160Z,21.98
2022-12-03T22:46:07.468Z,20.45
2022-12-03T22:48:35.174Z,22.95
2022-12-03T22:51:02.034Z,22.98
2022-12-03T22:53:29.092Z,24.75
2022-12-03T22:55:59.917Z,23.20
2022-12-03T22:58:27.843Z,22.70
2022-12-03T23:00:59.777Z,21.75
2022-12-03T23:03:29.417Z,15.15
2022-12-03T23:05:59.031Z,21.23
2022-12-03T23:08:25.789Z,20.13
2022-12-03T23:10:54.364Z,17.42
2022-12-03T23:13:22.619Z,18.80
2022-12-03T23:15:52.465Z,21.63
2022-12-03T23:18:20.040Z,21.90
2022-12-03T23:20:57.388Z,19.95
2022-12-03T23:23:27.022Z,16.55
2022-12-03T23:26:02.761Z,21.83
2022-12-03T23:28:30.987Z,23.83
2022-12-03T23:30:58.016Z,21.55
2022-12-03T23:33:25.735Z,20.80
2022-12-03T23:35:52.489Z,21.52
2022-12-03T23:38:19.618Z,24.67
2022-12-03T23:40:48.265Z,23.85
2022-12-03T23:43:19.166Z,20.80
2022-12-03T23:45:45.903Z,24.17
2022-12-03T23:48:12.934Z,25.50
2022-12-03T23:50:41.244Z,22.50
2022-12-03T23:53:08.451Z,20.45
2022-12-03T23:55:39.930Z,26.60
2022-12-03T23:58:06.688Z,17.17
